Uxbridge, Canada
Current Conditions -  °F | °C
As of 2:00 PM on Friday 21 Nov 2014 (Local Time) from CYKZ Reporting Station
Broken Clouds Broken Clouds  
Wind Chill: -8°   Ceiling: 3600
Heat Index: -2°   Visibility: 15mi
Dew Point: -11°   Wind: 13mph
Humidity: 51%   Direction: 270°W
Pressure: 30.36"   Gusts: 21mph
Location:  44.1°N, 79.12°W
Report Text: CYKZ 211900Z 27011G18KT 15SM BKN036 M02/M11 A3036 RMK CU6 SLP292
Loading
Personal Weather Stations






























Interactive Weather Map New forecast layout! Learn more

10-Day Weather Forecast

Advertisements
Track Severe Weather on mobile